Time;durP1;ratioP1;P1;durP2;ratioP2;P2;SDS_P1;SDS_P2;PMS_P1;PMS_P2;Temp;Humidity;BMP_temperature;BMP_pressure;BME280_temperature;BME280_humidity;BME280_pressure;Samples;Min_cycle;Max_cycle;Signal;HPM_P1;HPM_P2
2021/01/07 00:00:35;;;;;;;77.60;71.53;;;1.80;99.90;;;;;;5031938;28;20856;-82
2021/01/07 00:03:38;;;;;;;82.47;75.43;;;1.70;99.90;;;;;;5033014;28;20464;-83
2021/01/07 00:06:18;;;;;;;80.77;74.60;;;1.70;99.90;;;;;;5032999;28;20555;-83
2021/01/07 00:08:46;;;;;;;81.17;73.73;;;1.60;99.90;;;;;;5032792;28;20497;-83
2021/01/07 00:11:17;;;;;;;81.07;74.70;;;1.70;99.90;;;;;;5032704;28;20463;-83
2021/01/07 00:13:45;;;;;;;78.97;72.43;;;1.60;99.90;;;;;;5032434;28;20971;-83
2021/01/07 00:16:19;;;;;;;82.95;76.53;;;1.70;99.90;;;;;;5031496;28;20543;-83
2021/01/07 00:18:53;;;;;;;80.53;74.10;;;1.70;99.90;;;;;;5032946;28;20651;-83
2021/01/07 00:21:31;;;;;;;84.00;76.97;;;1.60;99.90;;;;;;5032395;28;20486;-82
2021/01/07 00:23:59;;;;;;;84.40;77.97;;;1.70;99.90;;;;;;5032662;28;20886;-83
2021/01/07 00:26:35;;;;;;;83.23;76.83;;;1.70;99.90;;;;;;5032676;28;20514;-84
2021/01/07 00:29:12;;;;;;;;;;;;;;;;;;;;;
2021/01/07 00:32:00;;;;;;;86.23;79.60;;;1.70;99.90;;;;;;5031246;28;20480;-84
2021/01/07 00:34:40;;;;;;;89.10;81.87;;;1.70;99.90;;;;;;5022307;28;20454;-84
2021/01/07 00:37:07;;;;;;;84.67;77.43;;;1.70;99.90;;;;;;5032397;28;20456;-82
2021/01/07 00:39:34;;;;;;;84.30;76.10;;;1.80;99.90;;;;;;5032428;28;20538;-82
2021/01/07 00:42:07;;;;;;;83.07;75.40;;;1.80;99.90;;;;;;5032421;28;20936;-83
2021/01/07 00:44:35;;;;;;;77.90;71.10;;;1.80;99.90;;;;;;5032477;28;20460;-82
2021/01/07 00:47:02;;;;;;;76.93;69.60;;;1.70;99.90;;;;;;5031297;28;20488;-82
2021/01/07 00:49:30;;;;;;;75.00;68.00;;;1.80;99.90;;;;;;5032496;28;20816;-83
2021/01/07 00:52:09;;;;;;;;;;;;;;;;;;;;;
2021/01/07 00:54:35;;;;;;;68.53;62.30;;;1.70;99.90;;;;;;5027013;28;21005;-84
2021/01/07 00:57:03;;;;;;;64.57;58.80;;;1.70;99.90;;;;;;5032332;28;20471;-83
2021/01/07 00:59:32;;;;;;;64.90;58.70;;;1.80;99.90;;;;;;5032361;28;20870;-83
2021/01/07 01:02:04;;;;;;;62.00;56.30;;;1.80;99.90;;;;;;5033915;28;20452;-83
2021/01/07 01:04:37;;;;;;;58.43;52.70;;;1.80;99.90;;;;;;5035672;28;20563;-83
2021/01/07 01:07:14;;;;;;;59.00;53.07;;;1.80;99.90;;;;;;5035981;28;20456;-83
2021/01/07 01:09:42;;;;;;;57.30;51.50;;;1.80;99.90;;;;;;5036113;28;20857;-82
2021/01/07 01:12:10;;;;;;;55.50;50.33;;;1.80;99.90;;;;;;5035830;28;20492;-83
2021/01/07 01:14:38;;;;;;;53.70;48.70;;;1.90;99.90;;;;;;5035816;28;20514;-83
2021/01/07 01:17:09;;;;;;;56.57;51.37;;;1.80;99.90;;;;;;5034572;28;21020;-82
2021/01/07 01:19:50;;;;;;;;;;;;;;;;;;;;;
2021/01/07 01:22:18;;;;;;;52.60;47.20;;;1.80;99.90;;;;;;5025244;28;20477;-84
2021/01/07 01:24:47;;;;;;;53.87;46.73;;;1.80;99.90;;;;;;5035551;28;20455;-83
2021/01/07 01:27:23;;;;;;;51.23;45.93;;;1.70;99.90;;;;;;4984758;28;20460;-83
2021/01/07 01:30:05;;;;;;;53.30;47.90;;;1.80;99.90;;;;;;5035423;28;20939;-83
2021/01/07 01:32:33;;;;;;;53.73;48.40;;;1.70;99.90;;;;;;5035505;28;20452;-82
2021/01/07 01:35:06;;;;;;;53.70;48.50;;;1.80;99.90;;;;;;5035352;28;20459;-82
2021/01/07 01:37:40;;;;;;;53.87;45.97;;;1.70;99.90;;;;;;5035603;28;20449;-83
2021/01/07 01:40:16;;;;;;;53.47;47.43;;;1.80;99.90;;;;;;5035228;28;20963;-83
2021/01/07 01:42:50;;;;;;;51.37;45.77;;;1.70;99.90;;;;;;5035555;28;20495;-83
2021/01/07 01:45:20;;;;;;;51.73;44.27;;;1.70;99.90;;;;;;5034267;28;20456;-84
2021/01/07 01:47:48;;;;;;;48.33;43.47;;;1.80;99.90;;;;;;5035356;28;20460;-83
2021/01/07 01:50:21;;;;;;;47.13;41.07;;;1.70;99.90;;;;;;5034913;28;20467;-84
2021/01/07 01:53:00;;;;;;;41.93;37.33;;;1.80;99.90;;;;;;5035225;28;20475;-82
2021/01/07 01:55:38;;;;;;;;;;;;;;;;;;;;;
2021/01/07 01:58:08;;;;;;;43.07;34.07;;;1.70;99.90;;;;;;5017207;28;20543;-84
2021/01/07 02:00:37;;;;;;;41.47;34.50;;;1.70;99.90;;;;;;5033585;28;20476;-82
2021/01/07 02:03:08;;;;;;;46.53;36.00;;;1.80;99.90;;;;;;5036401;28;20944;-82
2021/01/07 02:05:39;;;;;;;48.40;37.97;;;1.70;99.90;;;;;;5035089;28;20461;-83
2021/01/07 02:08:18;;;;;;;;;;;;;;;;;;;;;
2021/01/07 02:10:50;;;;;;;53.60;44.07;;;1.70;99.90;;;;;;5034367;28;20478;-83
2021/01/07 02:13:26;;;;;;;51.28;46.25;;;1.70;99.90;;;;;;5034455;28;20457;-83
2021/01/07 02:15:57;;;;;;;59.00;53.40;;;1.60;99.90;;;;;;5033509;28;20224;-82
2021/01/07 02:18:23;;;;;;;56.63;51.43;;;1.60;99.90;;;;;;5034604;28;20551;-83
2021/01/07 02:20:54;;;;;;;58.00;52.30;;;1.60;99.90;;;;;;5034414;28;20503;-82
2021/01/07 02:23:25;;;;;;;61.13;55.23;;;1.60;99.90;;;;;;5034614;28;20456;-83
2021/01/07 02:25:55;;;;;;;60.57;55.20;;;1.60;99.90;;;;;;5034544;28;20484;-83
2021/01/07 02:28:23;;;;;;;61.63;55.63;;;1.60;99.90;;;;;;5034431;28;20816;-83
2021/01/07 02:30:58;;;;;;;69.73;63.13;;;1.70;99.90;;;;;;5032972;28;20484;-83
2021/01/07 02:33:28;;;;;;;67.57;62.10;;;1.60;99.90;;;;;;5034276;28;20452;-83
2021/01/07 02:36:04;;;;;;;73.13;66.33;;;1.60;99.90;;;;;;5034277;28;20455;-83
2021/01/07 02:38:30;;;;;;;75.77;69.37;;;1.60;99.90;;;;;;5034143;28;20518;-83
2021/01/07 02:41:11;;;;;;;76.93;70.10;;;1.70;99.90;;;;;;5034050;28;20488;-83
2021/01/07 02:43:45;;;;;;;79.10;72.40;;;1.50;99.90;;;;;;5034262;28;20448;-83
2021/01/07 02:46:14;;;;;;;78.67;72.67;;;1.60;99.90;;;;;;5032920;28;20539;-83
2021/01/07 02:48:41;;;;;;;79.50;72.53;;;1.50;99.90;;;;;;5034226;28;20471;-82
2021/01/07 02:51:14;;;;;;;85.20;78.47;;;1.60;99.90;;;;;;5034207;28;20602;-83
2021/01/07 02:53:43;;;;;;;88.83;82.13;;;1.60;99.90;;;;;;5034208;28;20484;-83
2021/01/07 02:56:23;;;;;;;87.97;80.17;;;1.60;99.90;;;;;;5033970;28;20452;-83
2021/01/07 02:58:56;;;;;;;83.43;76.60;;;1.60;99.90;;;;;;5033877;28;20559;-83
2021/01/07 03:01:23;;;;;;;85.57;77.67;;;1.60;99.90;;;;;;5032416;28;20484;-83
2021/01/07 03:04:06;;;;;;;86.87;79.33;;;1.60;99.90;;;;;;5033786;28;20459;-84
2021/01/07 03:06:35;;;;;;;81.50;74.60;;;1.70;99.90;;;;;;5033693;28;20460;-83
2021/01/07 03:09:02;;;;;;;80.53;73.40;;;1.70;99.90;;;;;;5033660;28;20815;-82
2021/01/07 03:11:48;;;;;;;79.17;72.37;;;1.60;99.90;;;;;;5033707;28;20452;-82
2021/01/07 03:14:16;;;;;;;77.70;70.63;;;1.70;99.90;;;;;;5033572;28;20448;-83
2021/01/07 03:16:42;;;;;;;78.50;71.57;;;1.60;99.90;;;;;;5032496;28;20456;-83
2021/01/07 03:19:12;;;;;;;78.43;71.10;;;1.60;99.90;;;;;;5033605;28;20460;-83
2021/01/07 03:21:51;;;;;;;79.67;72.30;;;1.60;99.90;;;;;;5033500;28;20494;-83
2021/01/07 03:24:17;;;;;;;77.83;70.67;;;1.70;99.90;;;;;;5032901;28;20464;-83
2021/01/07 03:26:46;;;;;;;79.27;71.50;;;1.60;99.90;;;;;;5033452;28;20860;-83
2021/01/07 03:29:16;;;;;;;76.85;68.97;;;1.70;99.90;;;;;;5033323;28;20806;-84
2021/01/07 03:31:44;;;;;;;73.70;67.10;;;1.60;99.90;;;;;;5032053;28;20232;-83
2021/01/07 03:34:15;;;;;;;78.20;70.50;;;1.70;99.90;;;;;;5033209;28;20478;-84
2021/01/07 03:36:45;;;;;;;80.97;72.97;;;1.70;99.90;;;;;;5033132;28;20910;-84
2021/01/07 03:39:17;;;;;;;74.13;66.83;;;1.80;99.90;;;;;;5033087;28;20457;-83
2021/01/07 03:41:45;;;;;;;70.13;62.90;;;1.70;99.90;;;;;;5033054;28;21019;-83
2021/01/07 03:44:18;;;;;;;69.40;62.90;;;1.70;99.90;;;;;;5033022;28;20522;-84
2021/01/07 03:46:46;;;;;;;70.77;63.60;;;1.70;99.90;;;;;;5031948;28;20567;-82
2021/01/07 03:49:46;;;;;;;;;;;;;;;;;;;;;
2021/01/07 03:52:24;;;;;;;70.10;63.47;;;1.70;99.90;;;;;;5031147;28;20864;-84
2021/01/07 03:54:52;;;;;;;72.10;63.67;;;1.80;99.90;;;;;;5032982;28;20444;-83
2021/01/07 04:00:00;;;;;;;71.27;60.87;;;1.80;99.90;;;;;;5311901;22;20499;-83
2021/01/07 04:02:30;;;;;;;70.30;62.67;;;1.90;99.90;;;;;;5032226;28;20461;-82
2021/01/07 04:04:56;;;;;;;66.40;60.00;;;1.80;99.90;;;;;;5032829;28;20472;-82
2021/01/07 04:07:26;;;;;;;65.20;58.30;;;1.80;99.90;;;;;;5032908;28;20456;-81
2021/01/07 04:09:55;;;;;;;61.83;55.27;;;1.90;99.90;;;;;;5032917;28;20460;-82
2021/01/07 04:12:21;;;;;;;61.90;54.70;;;2.00;99.90;;;;;;5032897;28;20452;-81
2021/01/07 04:14:48;;;;;;;60.67;53.90;;;1.90;99.90;;;;;;5032704;28;20457;-82
2021/01/07 04:17:18;;;;;;;60.20;53.50;;;2.00;99.90;;;;;;5031460;28;20452;-82
2021/01/07 04:19:54;;;;;;;;;;;;;;;;;;;;;
2021/01/07 04:22:24;;;;;;;68.83;53.03;;;1.90;99.90;;;;;;5034581;28;20865;-82
2021/01/07 04:24:58;;;;;;;69.10;51.40;;;2.00;99.90;;;;;;5032471;28;20518;-82
2021/01/07 04:27:36;;;;;;;55.77;49.93;;;2.00;99.90;;;;;;5032603;28;20459;-81
2021/01/07 04:30:08;;;;;;;58.10;51.77;;;2.00;99.90;;;;;;5032169;28;20456;-82
2021/01/07 04:32:43;;;;;;;60.70;53.00;;;2.10;99.90;;;;;;5032679;28;20456;-82
2021/01/07 04:35:12;;;;;;;66.57;54.00;;;2.00;99.90;;;;;;5034132;28;20547;-82
2021/01/07 04:38:11;;;;;;;;;;;;;;;;;;;;;
2021/01/07 04:40:53;;;;;;;61.07;53.77;;;2.10;99.90;;;;;;5787717;22;20799;-82
2021/01/07 04:43:21;;;;;;;66.70;54.17;;;2.10;99.90;;;;;;5036367;28;20538;-83
2021/01/07 04:45:48;;;;;;;69.23;56.30;;;2.10;99.90;;;;;;5035185;28;20455;-83
2021/01/07 04:48:19;;;;;;;61.87;54.90;;;2.10;99.90;;;;;;5036324;28;20456;-83
2021/01/07 04:50:53;;;;;;;65.80;54.33;;;2.10;99.90;;;;;;5036260;28;20932;-82
2021/01/07 04:53:29;;;;;;;64.60;55.77;;;2.20;99.90;;;;;;5036557;28;20486;-83
2021/01/07 04:55:58;;;;;;;64.27;54.20;;;2.10;99.90;;;;;;5035916;28;20450;-82
2021/01/07 04:58:38;;;;;;;;;;;;;;;;;;;;;
2021/01/07 05:01:06;;;;;;;71.27;53.77;;;2.10;99.90;;;;;;5034495;28;20488;-83
2021/01/07 05:03:49;;;;;;;61.77;52.13;;;2.20;99.90;;;;;;5036185;28;20518;-83
2021/01/07 05:06:16;;;;;;;60.50;45.47;;;2.30;99.90;;;;;;5035992;28;20448;-83
2021/01/07 05:09:09;;;;;;;64.67;50.77;;;2.30;99.90;;;;;;5035722;28;20875;-84
2021/01/07 05:11:43;;;;;;;63.97;50.15;;;2.20;99.90;;;;;;5035906;28;20506;-83
2021/01/07 05:14:11;;;;;;;69.13;53.10;;;2.20;99.90;;;;;;5035891;28;20551;-82
2021/01/07 05:16:44;;;;;;;66.57;51.57;;;2.20;99.90;;;;;;5034678;28;20471;-82
2021/01/07 05:19:35;;;;;;;;;;;;;;;;;;;;;
2021/01/07 05:22:04;;;;;;;64.47;48.63;;;2.20;99.90;;;;;;5035276;28;20487;-83
2021/01/07 05:24:35;;;;;;;70.07;50.23;;;2.20;99.90;;;;;;5035545;28;20501;-82
2021/01/07 05:27:09;;;;;;;64.20;48.93;;;2.20;99.90;;;;;;5035526;28;20488;-84
2021/01/07 05:29:43;;;;;;;63.57;49.30;;;2.30;99.90;;;;;;5035496;28;20550;-83
2021/01/07 05:32:15;;;;;;;64.30;51.67;;;2.10;99.90;;;;;;5034352;28;20455;-83
2021/01/07 05:34:50;;;;;;;66.23;53.40;;;2.10;99.90;;;;;;5035496;28;20456;-83
2021/01/07 05:37:17;;;;;;;74.10;58.93;;;2.10;99.90;;;;;;5035334;28;20452;-82
2021/01/07 05:39:46;;;;;;;70.67;60.17;;;2.00;99.90;;;;;;5035286;28;20547;-81
2021/01/07 05:42:18;;;;;;;70.60;61.63;;;2.10;99.90;;;;;;5035332;28;20480;-82
2021/01/07 05:44:47;;;;;;;83.87;65.87;;;2.10;99.90;;;;;;5035209;28;20457;-81
2021/01/07 05:47:27;;;;;;;80.90;66.47;;;2.10;99.90;;;;;;5033732;28;20476;-81
2021/01/07 05:49:56;;;;;;;79.67;69.67;;;2.00;99.90;;;;;;5035174;28;20451;-82
2021/01/07 05:52:23;;;;;;;79.67;69.93;;;2.00;99.90;;;;;;5034850;28;20449;-82
2021/01/07 05:54:52;;;;;;;78.37;67.37;;;2.00;99.90;;;;;;5034997;28;20456;-81
2021/01/07 05:57:19;;;;;;;80.77;71.93;;;2.10;99.90;;;;;;5034993;28;20468;-81
2021/01/07 05:59:48;;;;;;;84.83;75.70;;;2.00;99.90;;;;;;5034978;28;20948;-81
2021/01/07 06:02:17;;;;;;;81.30;72.73;;;2.00;99.90;;;;;;5033560;28;21066;-80
2021/01/07 06:04:44;;;;;;;84.43;74.53;;;2.10;99.90;;;;;;5034873;28;20876;-81
2021/01/07 06:07:12;;;;;;;81.90;73.00;;;2.00;99.90;;;;;;5034857;28;20484;-82
2021/01/07 06:09:48;;;;;;;87.30;74.20;;;2.00;99.90;;;;;;5034949;28;20448;-82
2021/01/07 06:12:23;;;;;;;89.53;75.67;;;2.10;99.90;;;;;;5034780;28;20463;-82
2021/01/07 06:14:49;;;;;;;93.10;82.80;;;2.00;99.90;;;;;;5034802;28;20483;-83
2021/01/07 06:17:17;;;;;;;80.10;71.53;;;2.10;99.90;;;;;;5033681;28;20539;-83
2021/01/07 06:19:45;;;;;;;78.53;69.83;;;2.10;99.90;;;;;;5034583;28;20456;-82
2021/01/07 06:22:16;;;;;;;79.27;69.90;;;2.10;99.90;;;;;;5034536;28;20843;-82
2021/01/07 06:24:44;;;;;;;75.03;62.57;;;2.10;99.90;;;;;;5034640;28;20859;-83
2021/01/07 06:27:29;;;;;;;82.77;60.90;;;2.10;99.90;;;;;;5034480;28;20546;-82
2021/01/07 06:30:21;;;;;;;89.23;59.93;;;2.20;99.90;;;;;;5034301;28;20487;-83
2021/01/07 06:33:00;;;;;;;68.87;54.80;;;2.10;99.90;;;;;;5034478;28;20882;-82
2021/01/07 06:35:33;;;;;;;61.20;48.33;;;2.10;99.90;;;;;;5034300;28;20488;-82
2021/01/07 06:38:01;;;;;;;64.87;45.20;;;2.10;99.90;;;;;;5034227;28;20868;-82
2021/01/07 06:40:29;;;;;;;68.77;53.57;;;2.10;99.90;;;;;;5033983;28;20844;-82
2021/01/07 06:42:57;;;;;;;59.93;48.17;;;2.20;99.90;;;;;;5034188;28;20453;-82
2021/01/07 06:45:25;;;;;;;70.73;52.80;;;2.00;99.90;;;;;;5033051;28;21252;-82
2021/01/07 06:47:53;;;;;;;64.27;48.67;;;2.10;99.90;;;;;;5033839;28;21021;-82
2021/01/07 06:50:20;;;;;;;64.83;50.83;;;2.00;99.90;;;;;;5034005;28;20453;-82
2021/01/07 06:52:50;;;;;;;65.97;48.90;;;2.00;99.90;;;;;;5034005;28;20479;-82
2021/01/07 06:55:21;;;;;;;64.57;48.87;;;2.10;99.90;;;;;;5033912;28;20452;-83
2021/01/07 06:57:48;;;;;;;53.13;47.17;;;1.90;99.90;;;;;;5033374;28;20514;-82
2021/01/07 07:00:19;;;;;;;66.27;48.40;;;2.00;99.90;;;;;;5032110;28;20475;-83
2021/01/07 07:02:58;;;;;;;63.63;46.70;;;2.00;99.90;;;;;;5033899;28;20460;-82
2021/01/07 07:05:27;;;;;;;57.50;46.87;;;1.90;99.90;;;;;;5033662;28;20459;-82
2021/01/07 07:08:08;;;;;;;62.50;50.60;;;1.90;99.90;;;;;;5033751;28;20539;-83
2021/01/07 07:11:09;;;;;;;62.10;51.17;;;1.80;99.90;;;;;;5033679;28;20460;-83
2021/01/07 07:13:48;;;;;;;63.50;51.43;;;1.80;99.90;;;;;;5033541;28;20952;-82
2021/01/07 07:16:19;;;;;;;63.33;54.57;;;1.70;99.90;;;;;;5032480;28;20483;-82
2021/01/07 07:18:45;;;;;;;60.33;53.90;;;1.70;99.90;;;;;;5033512;28;20857;-82
2021/01/07 07:21:20;;;;;;;74.87;66.77;;;1.80;99.90;;;;;;5033197;28;20498;-82
2021/01/07 07:23:47;;;;;;;72.47;65.30;;;1.70;99.90;;;;;;5033531;28;20451;-81
2021/01/07 07:26:28;;;;;;;75.90;67.27;;;1.60;99.90;;;;;;5033289;28;20460;-81
2021/01/07 07:28:57;;;;;;;84.03;76.03;;;1.60;99.90;;;;;;5033424;28;20448;-81
2021/01/07 07:31:41;;;;;;;84.10;75.70;;;1.60;99.90;;;;;;5032063;28;20993;-80
2021/01/07 07:34:08;;;;;;;83.87;76.27;;;1.60;99.90;;;;;;5033348;28;20552;-81
2021/01/07 07:36:35;;;;;;;78.87;71.83;;;1.70;99.90;;;;;;5033151;28;20500;-80
2021/01/07 07:39:03;;;;;;;82.37;75.10;;;1.70;99.90;;;;;;5033268;28;20873;-80
2021/01/07 07:41:29;;;;;;;84.17;76.07;;;1.70;99.90;;;;;;5033561;28;20502;-81
2021/01/07 07:43:57;;;;;;;81.10;73.40;;;1.70;99.90;;;;;;5035006;28;20452;-82
2021/01/07 07:46:25;;;;;;;83.10;75.60;;;1.80;99.90;;;;;;5031794;28;20543;-80
2021/01/07 07:48:59;;;;;;;80.40;71.97;;;1.80;99.90;;;;;;5033012;28;20510;-81
2021/01/07 07:51:26;;;;;;;85.60;77.73;;;1.80;99.90;;;;;;5032924;28;20457;-81
2021/01/07 07:54:03;;;;;;;75.97;69.37;;;1.80;99.90;;;;;;5033012;28;20457;-82
2021/01/07 07:57:21;;;;;;;83.20;75.67;;;1.70;99.90;;;;;;5032964;28;21010;-83
2021/01/07 07:59:55;;;;;;;96.63;87.73;;;1.60;99.90;;;;;;4901041;29;20885;-81
2021/01/07 08:02:27;;;;;;;100.87;91.67;;;1.70;99.90;;;;;;5000709;28;20480;-81
2021/01/07 08:05:01;;;;;;;112.30;101.60;;;1.60;99.90;;;;;;5032741;28;20968;-81
2021/01/07 08:07:48;;;;;;;;;;;;;;;;;;;;;
2021/01/07 08:10:16;;;;;;;129.37;117.97;;;1.50;99.90;;;;;;5032453;28;20460;-83
2021/01/07 08:12:44;;;;;;;132.37;120.57;;;1.60;99.90;;;;;;5032699;28;21011;-83
2021/01/07 08:15:12;;;;;;;136.03;124.30;;;1.60;99.90;;;;;;5031581;28;20488;-82
2021/01/07 08:17:38;;;;;;;140.50;129.20;;;1.60;99.90;;;;;;5032245;28;20514;-83
2021/01/07 08:20:09;;;;;;;144.03;132.60;;;1.60;99.90;;;;;;5032409;28;20456;-82
2021/01/07 08:22:42;;;;;;;144.03;131.17;;;1.70;99.90;;;;;;5032440;28;20499;-83
2021/01/07 08:25:10;;;;;;;150.37;137.40;;;1.70;99.90;;;;;;5032464;28;20457;-83
2021/01/07 08:27:38;;;;;;;146.73;134.37;;;1.80;99.90;;;;;;5030297;28;20567;-83
2021/01/07 08:30:06;;;;;;;147.63;135.67;;;1.70;99.90;;;;;;5045049;28;20455;-82
2021/01/07 08:32:43;;;;;;;143.77;132.67;;;1.80;99.90;;;;;;5050025;28;20459;-81
2021/01/07 08:35:12;;;;;;;146.43;134.13;;;1.80;99.90;;;;;;5050867;28;20513;-81
2021/01/07 08:37:54;;;;;;;141.27;130.67;;;1.80;99.90;;;;;;5051012;28;20451;-82
2021/01/07 08:40:26;;;;;;;134.47;124.57;;;1.90;99.90;;;;;;5050590;28;20893;-82
2021/01/07 08:42:59;;;;;;;136.73;126.03;;;1.90;99.90;;;;;;5052114;28;20501;-82
2021/01/07 08:45:33;;;;;;;130.17;120.57;;;1.90;99.90;;;;;;5051101;28;20442;-82
2021/01/07 08:48:11;;;;;;;128.00;118.57;;;1.80;99.90;;;;;;5052308;28;20831;-82
2021/01/07 08:50:40;;;;;;;126.43;116.80;;;1.80;99.90;;;;;;5052431;28;20504;-83
2021/01/07 08:53:18;;;;;;;127.13;117.03;;;1.80;99.90;;;;;;5052467;28;20946;-84
2021/01/07 08:55:49;;;;;;;122.63;113.50;;;1.90;99.90;;;;;;5052025;28;21016;-82
2021/01/07 08:58:26;;;;;;;121.43;112.23;;;1.90;99.90;;;;;;5051947;28;20876;-82
2021/01/07 09:00:55;;;;;;;125.30;115.80;;;2.00;99.90;;;;;;5050721;28;21004;-83
2021/01/07 09:03:22;;;;;;;127.13;117.00;;;1.90;99.90;;;;;;5052486;28;20455;-83
2021/01/07 09:08:56;;;;;;;118.20;109.00;;;1.90;99.90;;;;;;5048518;28;20962;-83
2021/01/07 09:11:30;;;;;;;115.03;106.63;;;1.90;99.90;;;;;;5052328;28;20878;-82
2021/01/07 09:14:06;;;;;;;116.23;107.70;;;1.90;99.90;;;;;;5052113;28;20447;-82
2021/01/07 09:16:33;;;;;;;111.23;103.57;;;1.90;99.90;;;;;;5050860;28;20851;-82
2021/01/07 09:19:07;;;;;;;111.73;103.80;;;2.00;99.90;;;;;;5051901;28;20524;-83
2021/01/07 09:21:38;;;;;;;105.87;98.27;;;2.00;99.90;;;;;;5052598;28;20856;-82
2021/01/07 09:24:17;;;;;;;98.53;90.53;;;2.00;99.90;;;;;;5055697;28;20466;-82
2021/01/07 09:26:45;;;;;;;104.80;96.87;;;2.10;99.90;;;;;;5055643;28;20459;-83
2021/01/07 09:29:18;;;;;;;90.80;83.87;;;2.10;99.90;;;;;;5055381;28;20452;-82
2021/01/07 09:31:44;;;;;;;96.90;89.00;;;2.20;99.90;;;;;;5054260;28;20451;-83
2021/01/07 09:34:12;;;;;;;91.17;84.23;;;2.20;99.90;;;;;;5055357;28;20879;-81
2021/01/07 09:36:40;;;;;;;89.93;83.40;;;2.30;99.90;;;;;;5055286;28;20458;-81
2021/01/07 09:39:06;;;;;;;75.73;70.23;;;2.30;99.90;;;;;;5055441;28;20962;-81
2021/01/07 09:41:35;;;;;;;72.03;65.90;;;2.40;99.90;;;;;;5055124;28;20483;-81
2021/01/07 09:44:01;;;;;;;86.20;79.40;;;2.30;99.90;;;;;;5055191;28;20537;-81
2021/01/07 09:46:28;;;;;;;76.87;69.97;;;2.30;99.90;;;;;;5053839;28;20462;-82
2021/01/07 09:48:54;;;;;;;74.70;68.33;;;2.30;99.90;;;;;;5055145;28;20452;-81
2021/01/07 09:51:20;;;;;;;76.17;69.50;;;2.30;99.90;;;;;;5055058;28;20593;-82
2021/01/07 09:54:13;;;;;;;83.20;75.83;;;2.40;99.90;;;;;;5055315;28;20829;-82
2021/01/07 09:56:39;;;;;;;82.63;75.87;;;2.40;99.90;;;;;;5054986;28;21132;-82
2021/01/07 09:59:06;;;;;;;73.50;67.30;;;2.50;99.90;;;;;;5055213;28;20454;-82
2021/01/07 10:01:32;;;;;;;72.57;65.60;;;2.50;99.90;;;;;;5053431;28;20518;-81
2021/01/07 10:03:59;;;;;;;67.60;61.03;;;2.60;99.90;;;;;;5054839;28;20455;-82
2021/01/07 10:06:25;;;;;;;69.33;63.63;;;2.50;99.90;;;;;;5054987;28;20462;-82
2021/01/07 10:08:52;;;;;;;76.20;69.70;;;2.50;99.90;;;;;;5054805;28;20455;-81
2021/01/07 10:11:19;;;;;;;73.93;67.90;;;2.60;99.90;;;;;;5054850;28;20487;-82
2021/01/07 10:13:47;;;;;;;66.20;60.40;;;2.60;99.90;;;;;;5054752;28;20494;-81
2021/01/07 10:16:14;;;;;;;66.27;61.03;;;2.60;99.90;;;;;;5053354;28;20546;-81
2021/01/07 10:18:42;;;;;;;63.33;58.03;;;2.70;99.90;;;;;;5054656;28;20512;-83
2021/01/07 10:21:10;;;;;;;62.27;56.80;;;2.90;99.90;;;;;;5054652;28;20868;-82
2021/01/07 10:23:41;;;;;;;57.03;51.70;;;2.80;99.90;;;;;;5054449;28;20455;-81
2021/01/07 10:26:09;;;;;;;55.27;50.33;;;3.00;99.90;;;;;;5054524;28;20451;-81
2021/01/07 10:28:38;;;;;;;54.57;49.23;;;3.00;99.90;;;;;;5054614;28;20518;-81
2021/01/07 10:31:05;;;;;;;53.90;48.80;;;3.00;99.90;;;;;;5053188;28;20463;-83
2021/01/07 10:33:35;;;;;;;43.00;38.90;;;3.00;99.90;;;;;;5054489;28;20873;-82
2021/01/07 10:36:02;;;;;;;37.77;33.60;;;2.90;99.90;;;;;;5054254;28;20452;-83
2021/01/07 10:38:30;;;;;;;38.60;34.60;;;2.90;99.90;;;;;;5054260;28;20456;-83
2021/01/07 10:41:00;;;;;;;39.83;35.57;;;2.90;99.90;;;;;;5053911;28;20519;-82
2021/01/07 10:43:29;;;;;;;34.50;30.83;;;2.90;99.90;;;;;;5054133;28;20458;-82
2021/01/07 10:45:56;;;;;;;42.67;34.60;;;2.70;99.90;;;;;;5052827;28;20533;-81
2021/01/07 10:48:26;;;;;;;42.60;38.50;;;2.80;99.90;;;;;;5053884;28;20451;-81
2021/01/07 10:50:53;;;;;;;41.23;37.10;;;2.80;99.90;;;;;;5054214;28;20460;-81
2021/01/07 10:54:01;;;;;;;38.20;34.90;;;2.80;99.90;;;;;;5053728;28;20550;-82
2021/01/07 10:57:23;;;;;;;;;;;;;;;;;;;;;
2021/01/07 11:00:29;;;;;;;;;;;;;;;;;;;;;
2021/01/07 11:03:43;;;;;;;;;;;;;;;;;;;;;
2021/01/07 11:07:09;;;;;;;;;;;;;;;;;;;;;
2021/01/07 11:12:37;;;;;;;46.20;41.80;;;2.70;99.90;;;;;;4915839;29;20537;-83
2021/01/07 11:15:05;;;;;;;54.73;49.03;;;2.90;99.90;;;;;;5036629;28;20451;-81
2021/01/07 11:17:39;;;;;;;50.73;46.13;;;2.80;99.90;;;;;;5052819;28;20494;-83
2021/01/07 11:20:08;;;;;;;56.33;50.87;;;2.90;99.90;;;;;;5053584;28;20456;-82
2021/01/07 11:22:41;;;;;;;50.50;44.93;;;2.80;99.90;;;;;;5049243;28;20491;-82
2021/01/07 11:25:11;;;;;;;54.83;49.40;;;2.70;99.90;;;;;;5053246;28;20550;-83
2021/01/07 11:27:42;;;;;;;49.30;44.30;;;2.80;99.90;;;;;;5053224;28;20836;-82
2021/01/07 11:30:12;;;;;;;49.53;44.63;;;2.80;99.90;;;;;;5052880;28;20475;-82
2021/01/07 11:32:41;;;;;;;53.10;47.50;;;2.80;99.90;;;;;;5053156;28;20488;-83
2021/01/07 11:35:09;;;;;;;53.97;48.47;;;2.80;99.90;;;;;;5053165;28;20458;-81
2021/01/07 11:37:48;;;;;;;57.83;51.97;;;2.90;99.90;;;;;;5053220;28;20447;-81
2021/01/07 11:40:23;;;;;;;54.77;49.30;;;2.90;99.90;;;;;;5053055;28;20479;-81
2021/01/07 11:43:14;;;;;;;56.30;48.17;;;2.90;99.90;;;;;;5052879;28;20973;-81
2021/01/07 11:45:46;;;;;;;44.13;39.63;;;2.90;99.90;;;;;;5048247;28;20477;-83
2021/01/07 11:48:14;;;;;;;50.07;44.70;;;2.90;99.90;;;;;;5053071;28;20498;-81
2021/01/07 11:50:43;;;;;;;49.50;44.87;;;2.90;99.90;;;;;;5053029;28;20975;-81
2021/01/07 11:53:10;;;;;;;42.93;37.50;;;2.90;99.90;;;;;;5052713;28;20470;-81
2021/01/07 11:55:38;;;;;;;48.07;43.17;;;2.90;99.90;;;;;;5052777;28;20577;-82
2021/01/07 11:58:19;;;;;;;42.67;38.70;;;3.00;99.90;;;;;;5052926;28;20542;-82
2021/01/07 12:00:46;;;;;;;46.67;42.27;;;3.00;99.90;;;;;;5046150;28;20475;-81
2021/01/07 12:03:14;;;;;;;46.90;41.93;;;3.10;99.90;;;;;;5036365;28;20546;-81
2021/01/07 12:05:40;;;;;;;41.57;37.20;;;3.10;99.90;;;;;;5051108;28;20562;-81
2021/01/07 12:08:18;;;;;;;38.10;34.33;;;3.20;99.90;;;;;;5051204;28;20456;-81
2021/01/07 12:10:51;;;;;;;36.57;32.90;;;3.20;99.90;;;;;;5051254;28;20470;-81
2021/01/07 12:13:30;;;;;;;39.17;32.80;;;3.20;99.90;;;;;;5051177;28;20494;-82
2021/01/07 12:15:58;;;;;;;38.73;34.57;;;3.30;99.90;;;;;;5049941;28;20822;-81
2021/01/07 12:18:26;;;;;;;36.73;32.87;;;3.30;99.90;;;;;;5050713;28;20970;-81
2021/01/07 12:20:53;;;;;;;32.60;29.30;;;3.40;99.90;;;;;;5034424;28;20480;-82
2021/01/07 12:23:21;;;;;;;27.43;24.73;;;3.40;99.90;;;;;;5031174;28;20555;-81
2021/01/07 12:25:49;;;;;;;33.13;27.97;;;3.30;99.90;;;;;;5031114;28;20463;-82
2021/01/07 12:28:17;;;;;;;33.77;27.63;;;3.40;99.90;;;;;;5031183;28;20459;-82
2021/01/07 12:30:51;;;;;;;32.43;28.83;;;3.40;99.90;;;;;;5029984;28;20444;-83
2021/01/07 12:33:26;;;;;;;32.40;28.43;;;3.40;99.90;;;;;;5031016;28;20439;-82
2021/01/07 12:36:07;;;;;;;29.13;23.53;;;3.40;99.90;;;;;;5031165;28;20543;-81
2021/01/07 12:38:46;;;;;;;33.77;26.90;;;3.40;99.90;;;;;;5031021;28;20959;-81
2021/01/07 12:41:21;;;;;;;23.57;20.50;;;3.40;99.90;;;;;;5030698;28;20549;-82
2021/01/07 12:43:56;;;;;;;29.17;24.40;;;3.30;99.90;;;;;;5030856;28;20483;-82
2021/01/07 12:46:29;;;;;;;31.80;24.53;;;3.40;99.90;;;;;;5029438;28;20460;-82
2021/01/07 12:48:58;;;;;;;26.77;23.87;;;3.40;99.90;;;;;;5031335;28;20457;-83
2021/01/07 12:51:26;;;;;;;28.33;23.80;;;3.60;99.90;;;;;;5031225;28;20464;-81
2021/01/07 12:53:52;;;;;;;27.10;22.67;;;3.60;99.90;;;;;;5030553;28;20571;-82
2021/01/07 12:56:29;;;;;;;30.87;20.20;;;3.70;99.90;;;;;;5031121;28;20475;-81
2021/01/07 12:59:03;;;;;;;32.70;20.70;;;3.60;99.90;;;;;;5034777;28;20459;-82
2021/01/07 13:01:38;;;;;;;24.70;19.63;;;3.50;99.90;;;;;;5033320;28;20580;-82
2021/01/07 13:04:11;;;;;;;30.37;22.27;;;3.40;99.90;;;;;;5034277;28;20542;-81
2021/01/07 13:06:44;;;;;;;28.97;25.73;;;3.40;99.90;;;;;;5031819;28;20467;-81
2021/01/07 13:09:19;;;;;;;31.07;27.20;;;3.40;99.90;;;;;;4997630;28;20539;-81
2021/01/07 13:11:48;;;;;;;25.33;21.43;;;3.50;99.90;;;;;;5033854;28;20509;-83
2021/01/07 13:14:15;;;;;;;28.77;23.87;;;3.40;99.90;;;;;;5033658;28;20482;-82
2021/01/07 13:16:42;;;;;;;26.13;22.57;;;3.30;99.90;;;;;;5032148;28;20506;-81
2021/01/07 13:19:15;;;;;;;27.60;24.67;;;3.30;99.90;;;;;;5033763;28;20452;-82
2021/01/07 13:21:42;;;;;;;28.00;24.33;;;3.20;99.90;;;;;;5024413;28;20494;-82
2021/01/07 13:24:11;;;;;;;28.13;25.20;;;3.20;99.90;;;;;;5032652;28;20689;-82
2021/01/07 13:26:42;;;;;;;28.27;25.57;;;3.10;99.90;;;;;;5032545;28;20963;-81
2021/01/07 13:29:11;;;;;;;26.83;24.17;;;3.10;99.90;;;;;;5031333;28;20546;-82